Latest Weather Observations for Badgerys Creek

IDN60801

Issued at 10:42 am EDT Friday 15 November 2019 (issued every 10 minutes, with the page automatically refreshed every 10 minutes)

About weather observations | Map of weather stations | Latest weather observations for NSW | Other Formats
Station Details ID: 067108 Name: BADGERYS CREEK AWS Lat: -33.90 Lon: 150.73 Height: 81.2 m
Data from the previous 72 hours. | See also: Recent months at Badgerys Creek
Date/Time
EDT
Temp
°C
App
Temp
°C
Dew
Point
°C
Rel
Hum
%
Delta-T
°C
Wind Press
QNH
hPa
Press
MSL
hPa
Rain since
9am
mm
Dir  Spd
km/h
Gust
km/h
Spd
kts
Gust
kts
15/10:30am 26.2 23.7 4.6 25 11.0 NNW 7 15 4 8 1010.2 1009.9 0.0
15/10:00am 25.7 22.9 5.3 27 10.4 NW 9 19 5 10 1010.4 1010.1 0.0
15/09:30am 24.6 21.9 5.4 29 9.8 NNW 9 17 5 9 1010.5 1010.2 0.0
15/09:00am 24.0 22.0 6.3 32 9.1 NNE 6 9 3 5 1010.7 1010.4 0.0
15/08:30am 21.5 19.9 8.1 42 7.0 NNE 6 7 3 4 1010.9 1010.6 0.0
15/08:00am 19.8 18.2 8.2 47 6.0 N 6 7 3 4 1010.8 1010.5 0.0
15/07:30am 17.6 16.6 7.4 51 5.1 W 2 6 1 3 1010.7 1010.4 0.0
15/07:00am 15.0 14.3 8.5 65 3.3 WSW 2 6 1 3 1010.7 1010.4 0.0
15/06:30am 11.6 10.7 6.1 69 2.6 CALM 0 0 0 0 1010.6 1010.3 0.0
15/06:00am 9.6 7.8 5.6 76 1.8 WSW 4 7 2 4 1010.5 1010.2 0.0
15/05:30am 11.0 10.2 6.7 75 2.0 CALM 0 0 0 0 1010.3 1010.0 0.0
15/05:00am 11.1 10.6 7.8 80 1.6 CALM 0 4 0 2 1010.1 1009.8 0.0
15/04:30am 11.7 10.2 7.0 73 2.3 WSW 4 6 2 3 1010.2 1009.9 0.0
15/04:00am 11.9 10.6 7.8 76 2.0 WSW 4 6 2 3 1010.3 1010.0 0.0
15/03:30am 12.3 11.6 8.6 78 1.8 SW 2 13 1 7 1010.4 1010.1 0.0
15/03:00am 11.6 10.8 8.3 80 1.6 ENE 2 6 1 3 1010.6 1010.3 0.0
15/02:30am 12.1 10.7 7.4 73 2.3 ENE 4 6 2 3 1010.6 1010.3 0.0
15/02:00am 12.8 12.4 8.1 73 2.3 CALM 0 0 0 0 1010.9 1010.6 0.0
15/01:30am 13.0 12.6 8.3 73 2.3 CALM 0 0 0 0 1011.2 1010.9 0.0
15/01:00am 13.7 13.3 8.1 69 2.8 CALM 0 2 0 1 1011.4 1011.1 0.0
15/12:30am 13.5 12.2 7.7 68 2.9 ENE 4 7 2 4 1011.7 1011.5 0.0
15/12:00am 15.0 13.9 8.5 65 3.3 ENE 4 6 2 3 1011.9 1011.7 0.0
 
Date/Time
EDT
Temp
°C
App
Temp
°C
Dew
Point
°C
Rel
Hum
%
Delta-T
°C
Wind Press
QNH
hPa
Press
MSL
hPa
Rain since
9am
mm
Dir  Spd
km/h
Gust
km/h
Spd
kts
Gust
kts
14/11:30pm 14.4 12.7 7.5 63 3.4 NNE 6 9 3 5 1011.9 1011.7 0.0
14/11:00pm 16.6 15.5 8.6 59 4.1 NW 4 4 2 2 1011.9 1011.7 0.0
14/10:30pm 17.6 16.2 8.7 56 4.6 NE 6 7 3 4 1011.7 1011.5 0.0
14/10:00pm 17.8 16.2 8.1 53 5.0 ENE 6 7 3 4 1011.6 1011.4 0.0
14/09:30pm 17.9 16.5 7.3 50 5.4 ENE 4 6 2 3 1011.5 1011.3 0.0
14/09:00pm 18.7 17.0 7.5 48 5.7 ENE 6 9 3 5 1011.1 1010.8 0.0
14/08:30pm 20.0 18.3 7.7 45 6.3 ENE 6 7 3 4 1010.8 1010.5 0.0
14/08:00pm 21.2 19.5 7.4 41 7.1 ENE 6 9 3 5 1010.7 1010.4 0.0
14/07:30pm 22.7 20.8 6.9 36 8.2 ENE 6 6 3 3 1010.5 1010.2 0.0
14/07:00pm 23.8 21.8 7.0 34 8.8 ENE 7 11 4 6 1010.0 1009.7 0.0
14/06:30pm 25.0 22.1 6.7 31 9.6 NE 11 17 6 9 1009.7 1009.4 0.0
14/06:00pm 25.5 21.4 6.2 29 10.0 NE 17 22 9 12 1009.2 1008.9 0.0
14/05:30pm 26.6 22.4 5.5 26 10.9 NNE 17 24 9 13 1009.1 1008.8 0.0
14/05:00pm 28.2 23.2 3.8 21 12.4 N 19 26 10 14 1009.0 1008.7 0.0
14/04:30pm 28.8 24.9 3.6 20 12.7 N 13 20 7 11 1009.1 1008.8 0.0
14/04:00pm 29.1 24.7 4.6 21 12.7 NE 17 24 9 13 1009.5 1009.2 0.0
14/03:30pm 28.9 24.9 5.1 22 12.4 N 15 28 8 15 1009.8 1009.5 0.0
14/03:00pm 28.0 23.4 3.7 21 12.3 NNE 17 28 9 15 1010.3 1010.0 0.0
14/02:30pm 27.8 23.7 4.2 22 12.0 NE 15 24 8 13 1010.9 1010.6 0.0
14/02:00pm 27.4 23.3 4.5 23 11.7 NNE 15 24 8 13 1011.5 1011.3 0.0
14/01:30pm 26.8 22.3 4.0 23 11.5 N 17 30 9 16 1012.2 1012.0 0.0
14/01:00pm 26.9 24.4 4.6 24 11.3 NNW 7 24 4 13 1012.8 1012.6 0.0
14/12:30pm 24.9 21.7 3.0 24 10.7 ENE 9 20 5 11 1013.3 1013.1 0.0
14/12:00pm 25.1 21.8 4.3 26 10.4 N 11 19 6 10 1014.1 1013.9 0.0
14/11:30am 23.5 20.3 2.9 26 9.9 SSW 9 17 5 9 1014.7 1014.5 0.0
14/11:00am 23.9 20.3 3.2 26 10.1 WSW 11 20 6 11 1015.0 1014.8 0.0
14/10:30am 22.9 18.9 2.9 27 9.6 SW 13 22 7 12 1015.3 1015.1 0.0
14/10:00am 22.8 19.3 3.4 28 9.4 WSW 11 22 6 12 1015.4 1015.2 0.0
14/09:30am 21.8 16.8 3.5 30 8.8 WSW 19 30 10 16 1015.7 1015.5 0.0
14/09:00am 20.7 14.8 2.0 29 8.7 WSW 22 32 12 17 1016.0 1015.8 0.0
14/08:30am 20.4 15.0 2.7 31 8.3 SW 20 32 11 17 1015.9 1015.7 0.0
14/08:00am 18.8 15.1 2.2 33 7.6 SW 11 17 6 9 1015.6 1015.4 0.0
14/07:30am 16.8 15.1 3.8 42 6.1 SW 2 6 1 3 1015.5 1015.3 0.0
14/07:00am 13.5 12.1 3.8 52 4.4 CALM 0 2 0 1 1015.3 1015.1 0.0
14/06:30am 10.7 9.1 2.3 56 3.6 CALM 0 0 0 0 1015.0 1014.8 0.0
14/06:00am 11.2 8.3 1.2 50 4.2 SW 6 6 3 3 1014.8 1014.6 0.0
14/05:30am 11.4 9.3 1.4 50 4.2 SW 2 2 1 1 1014.5 1014.3 0.0
14/05:00am 12.0 9.4 1.1 47 4.6 SW 4 7 2 4 1014.2 1014.0 0.0
14/04:30am 14.4 11.4 0.6 39 5.9 SW 6 6 3 3 1013.8 1013.6 0.0
14/04:00am 13.9 11.2 0.5 40 5.7 SW 4 6 2 3 1013.9 1013.7 0.0
14/03:30am 13.3 10.9 -0.3 39 5.6 SSW 2 4 1 2 1013.8 1013.6 0.0
14/03:00am 15.4 12.6 -0.4 34 6.7 SSW 4 6 2 3 1013.8 1013.6 0.0
14/02:30am 15.3 12.0 0.3 36 6.4 WSW 7 11 4 6 1014.0 1013.8 0.0
14/02:00am 15.3 11.9 -0.9 33 6.8 SW 7 13 4 7 1014.2 1014.0 0.0
14/01:30am 15.7 12.5 -0.5 33 6.8 SW 6 7 3 4 1014.4 1014.2 0.0
14/01:00am 16.9 14.1 -0.3 31 7.4 SW 4 6 2 3 1014.3 1014.1 0.0
14/12:30am 14.8 10.7 -0.1 36 6.3 SW 11 15 6 8 1014.4 1014.2 0.0
14/12:00am 16.7 13.3 -0.5 31 7.3 SSW 7 9 4 5 1014.5 1014.3 0.0
 
Date/Time
EDT
Temp
°C
App
Temp
°C
Dew
Point
°C
Rel
Hum
%
Delta-T
°C
Wind Press
QNH
hPa
Press
MSL
hPa
Rain since
9am
mm
Dir  Spd
km/h
Gust
km/h
Spd
kts
Gust
kts
13/11:30pm 16.7 13.4 0.4 33 7.1 SW 7 11 4 6 1014.3 1014.1 0.0
13/11:00pm 17.1 14.1 0.7 33 7.2 SW 6 9 3 5 1014.2 1014.0 0.0
13/10:30pm 16.3 12.5 1.6 37 6.5 W 11 17 6 9 1014.0 1013.8 0.0
13/10:00pm 15.5 13.9 6.2 54 4.5 ENE 4 7 2 4 1014.1 1013.9 0.0
13/09:30pm 14.8 13.9 6.1 56 4.2 CALM 0 0 0 0 1013.8 1013.6 0.0
13/09:00pm 16.5 15.4 6.9 53 4.8 E 2 4 1 2 1013.4 1013.2 0.0
13/08:30pm 17.5 16.8 7.0 50 5.3 CALM 0 0 0 0 1013.0 1012.8 0.0
13/08:00pm 17.8 15.4 7.0 49 5.4 E 9 11 5 6 1012.4 1012.2 0.0
13/07:30pm 19.4 17.2 6.2 42 6.6 ESE 7 11 4 6 1012.0 1011.8 0.0
13/07:00pm 20.9 17.5 6.1 38 7.5 ESE 13 19 7 10 1011.2 1010.9 0.0
13/06:30pm 22.3 18.7 4.8 32 8.7 ESE 13 20 7 11 1010.3 1010.0 0.0
13/06:00pm 24.6 20.5 2.1 23 10.8 SSW 13 20 7 11 1009.7 1009.4 0.0
13/05:30pm 26.8 21.2 -6.1 11 13.8 SW 15 20 8 11 1009.3 1009.0 0.0
13/05:00pm 26.9 22.0 -7.2 10 14.0 SW 11 19 6 10 1009.4 1009.1 0.0
13/04:30pm 26.7 20.5 -8.8 9 14.1 W 17 30 9 16 1009.4 1009.1 0.0
13/04:00pm 26.4 21.5 -7.6 10 13.8 WNW 11 28 6 15 1009.5 1009.2 0.0
13/03:30pm 26.5 20.4 -7.6 10 13.9 SW 17 28 9 15 1009.7 1009.4 0.0
13/03:00pm 26.2 19.4 -9.1 9 13.9 WSW 20 35 11 19 1010.4 1010.1 0.0
13/02:30pm 25.4 18.9 -8.4 10 13.4 W 19 32 10 17 1011.1 1010.8 0.0
13/02:00pm 26.0 19.6 -6.7 11 13.5 SW 19 28 10 15 1011.6 1011.4 0.0
13/01:30pm 24.5 18.9 -6.7 12 12.6 SSW 15 32 8 17 1012.0 1011.8 0.0
13/01:00pm 24.0 18.1 -6.1 13 12.3 WSW 17 28 9 15 1012.3 1012.1 0.0
13/12:30pm 23.3 18.6 -4.8 15 11.7 WNW 11 19 6 10 1012.6 1012.4 0.0
13/12:00pm 21.8 16.1 -7.8 13 11.4 SW 15 30 8 16 1013.0 1012.8 0.0
13/11:30am 22.4 16.2 -4.6 16 11.2 SW 19 28 10 15 1013.3 1013.1 0.0
13/11:00am 20.8 14.9 -5.9 16 10.6 SW 17 28 9 15 1013.6 1013.4 0.0
13/10:30am 20.9 13.8 -4.3 18 10.3 SW 24 35 13 19 1014.0 1013.8 0.0
13/10:00am 19.7 13.5 -5.3 18 9.9 SW 19 30 10 16 1014.2 1014.0 0.0
13/09:30am 18.8 11.6 -5.3 19 9.5 WSW 24 35 13 19 1014.2 1014.0 0.0
13/09:00am 17.9 11.6 -4.1 22 8.8 SW 20 30 11 16 1014.1 1013.9 0.0
13/08:30am 17.2 9.5 -3.0 25 8.2 SW 28 39 15 21 1013.9 1013.7 0.0
13/08:00am 17.1 11.2 -1.1 29 7.7 WSW 20 32 11 17 1013.8 1013.6 0.0
13/07:30am 16.3 10.4 -0.8 31 7.2 WSW 20 32 11 17 1013.6 1013.4 0.0
13/07:00am 15.7 11.6 -0.1 34 6.7 WSW 11 15 6 8 1012.8 1012.6 0.0
13/06:30am 14.9 10.0 -0.4 35 6.4 WSW 15 22 8 12 1012.7 1012.5 0.0
13/06:00am 14.6 8.3 -1.1 34 6.5 WSW 22 32 12 17 1012.3 1012.1 0.0
13/05:30am 15.0 9.1 -0.7 34 6.6 WSW 20 30 11 16 1011.9 1011.7 0.0
13/05:00am 14.9 9.1 -0.4 35 6.4 SW 20 28 11 15 1011.6 1011.4 0.0
13/04:30am 13.8 9.3 2.1 45 5.1 SW 15 24 8 13 1011.5 1011.3 0.0
13/04:00am 13.1 12.0 10.6 85 1.3 W 7 15 4 8 1011.1 1010.8 0.0
13/03:30am 10.8 9.2 8.7 87 1.0 WNW 7 9 4 5 1010.9 1010.6 0.0
13/03:00am 11.4 11.3 9.3 87 1.1 CALM 0 0 0 0 1010.8 1010.5 0.0
13/02:30am 11.7 10.3 8.9 83 1.4 WNW 6 7 3 4 1010.6 1010.3 0.0
13/02:00am 11.8 10.1 8.3 79 1.7 SE 7 9 4 5 1010.5 1010.2 0.0
13/01:30am 12.9 11.5 9.5 80 1.7 SE 7 9 4 5 1010.6 1010.3 0.0
13/01:00am 13.9 13.4 9.5 75 2.3 SE 2 6 1 3 1010.3 1010.0 0.0
13/12:30am 14.8 14.5 10.0 73 2.5 SE 2 7 1 4 1010.3 1010.0 0.0
13/12:00am 15.2 13.7 10.4 73 2.5 SE 9 15 5 8 1010.2 1009.9 0.0
 
Date/Time
EDT
Temp
°C
App
Temp
°C
Dew
Point
°C
Rel
Hum
%
Delta-T
°C
Wind Press
QNH
hPa
Press
MSL
hPa
Rain since
9am
mm
Dir  Spd
km/h
Gust
km/h
Spd
kts
Gust
kts
12/11:30pm 15.7 13.0 10.5 71 2.8 SE 15 24 8 13 1009.9 1009.6 0.0
12/11:00pm 16.2 13.7 10.9 71 2.8 ESE 15 22 8 12 1009.4 1009.1 0.0
12/10:30pm 16.8 14.3 10.9 68 3.2 SE 15 22 8 12 1008.8 1008.5 0.0
12/10:00pm 18.6 15.6 10.7 60 4.3 ESE 17 24 9 13 1008.2 1007.9 0.0
12/09:47pm 20.0 17.0 9.3 50 5.7 S 15 30 8 16 1007.6 1007.3 0.0
12/09:30pm 25.0 19.4 3.6 25 10.6 WSW 22 35 12 19 1006.5 1006.2 0.0
12/09:00pm 25.6 18.4 2.9 23 11.1 WSW 30 41 16 22 1005.6 1005.3 0.0
12/08:30pm 26.5 19.1 1.7 20 11.9 WSW 30 43 16 23 1005.1 1004.8 0.0
12/08:11pm 27.1 19.6 1.5 19 12.3 WSW 30 48 16 26 1004.6 1004.4 0.0
12/08:00pm 27.2 20.8 0.8 18 12.6 WSW 24 33 13 18 1004.4 1004.2 0.0
12/07:30pm 28.8 20.5 -0.4 15 13.8 WSW 33 52 18 28 1003.9 1003.7 0.0
12/07:24pm 29.0 21.3 -0.2 15 13.8 WSW 30 52 16 28 1003.5 1003.3 0.0
12/07:00pm 30.0 22.9 -1.4 13 14.7 WSW 26 39 14 21 1002.5 1002.3 0.0
12/06:38pm 31.7 24.1 -2.3 11 15.9 W 28 46 15 25 1002.1 1001.9 0.0
12/06:30pm 31.8 24.4 -3.5 10 16.1 W 26 37 14 20 1002.1 1001.9 0.0
12/06:11pm 32.4 23.8 -4.5 9 16.7 W 32 52 17 28 1001.4 1001.2 0.0
12/06:00pm 33.1 24.3 -4.0 9 17.1 W 33 48 18 26 1001.0 1000.8 0.0
12/05:53pm 33.5 23.2 -3.7 9 17.2 W 41 61 22 33 1001.1 1000.9 0.0
12/05:49pm 33.5 22.9 -3.7 9 17.2 W 43 61 23 33 1000.8 1000.5 0.0
12/05:30pm 34.0 26.3 -3.3 9 17.4 WNW 28 48 15 26 1000.5 1000.2 0.0
12/05:00pm 35.4 28.9 -2.3 9 18.1 NW 22 33 12 18 1000.2 999.9 0.0
12/04:30pm 35.3 26.2 -3.9 8 18.3 WNW 35 57 19 31 1000.2 999.9 0.0
12/04:27pm 35.5 26.9 -2.2 9 18.1 WNW 33 52 18 28 1000.2 999.9 0.0
12/04:00pm 35.4 26.1 -2.3 9 18.1 WNW 37 50 20 27 1000.4 1000.1 0.0
12/03:30pm 35.9 26.0 -3.5 8 18.6 WNW 39 63 21 34 1000.6 1000.3 0.0
12/03:00pm 35.8 25.2 -3.5 8 18.6 NW 43 63 23 34 1000.9 1000.7 0.0
12/02:41pm 35.8 26.7 -3.5 8 18.5 NW 35 61 19 33 1001.2 1001.0 0.0
12/02:30pm 35.8 27.3 -2.0 9 18.2 NW 33 50 18 27 1001.5 1001.3 0.0
12/02:02pm 35.2 25.5 -2.4 9 17.9 NW 39 61 21 33 1002.0 1001.8 0.0
12/02:00pm 35.5 26.2 -2.2 9 18.2 NW 37 54 20 29 1002.0 1001.8 0.0
12/01:57pm 35.3 26.7 -2.3 9 18.0 NW 33 50 18 27 1002.1 1001.9 0.0
12/01:31pm 33.8 24.5 -2.0 10 17.0 W 37 57 20 31 1002.7 1002.5 0.0
12/01:30pm 33.5 24.0 -3.7 9 17.2 WNW 37 57 20 31 1002.7 1002.5 0.0
12/01:17pm 36.2 28.3 -1.7 9 18.4 WNW 30 52 16 28 1002.8 1002.6 0.0
12/01:00pm 35.1 26.7 -2.5 9 18.0 WNW 32 46 17 25 1002.9 1002.7 0.0
12/12:40pm 34.9 27.4 -1.2 10 17.5 NW 28 48 15 26 1003.1 1002.9 0.0
12/12:30pm 34.1 27.3 -1.8 10 17.2 WNW 24 37 13 20 1003.3 1003.1 0.0
12/12:00pm 33.6 25.2 -2.2 10 17.0 WNW 32 52 17 28 1003.8 1003.6 0.0
12/11:56am 33.5 26.1 -1.0 11 16.6 WNW 28 48 15 26 1004.0 1003.8 0.0
12/11:30am 32.9 24.9 -2.7 10 16.6 WNW 30 43 16 23 1004.5 1004.3 0.0
12/11:00am 32.3 25.9 -1.9 11 16.2 NW 22 30 12 16 1005.3 1005.0 0.0

Other formats

Comma delimited format used in spreadsheet applications
http://www.bom.gov.au/fwo/IDN60801/IDN60801.94752.axf

JavaScript Object Notation format (JSON) in row-major order
http://www.bom.gov.au/fwo/IDN60801/IDN60801.94752.json

Data quality

Most of these data are generated automatically and are frequently updated. Quality checks on data are not normally performed. It is possible for incorrect values to appear. Refer to information at About Latest Weather Observations and please check the disclaimer before using these data.